createdAt,value
2023-03-19T00:02:57.465Z,76.00
2023-03-19T00:06:00.423Z,75.90
2023-03-19T00:09:03.305Z,76.40
2023-03-19T00:12:08.532Z,76.00
2023-03-19T00:15:14.298Z,76.50
2023-03-19T00:18:17.566Z,77.40
2023-03-19T00:21:20.632Z,77.70
2023-03-19T00:24:23.533Z,77.50
2023-03-19T00:27:27.732Z,77.80
2023-03-19T00:30:30.743Z,77.80
2023-03-19T00:33:33.760Z,77.60
2023-03-19T00:36:37.910Z,78.00
2023-03-19T00:39:40.806Z,77.80
2023-03-19T00:42:45.190Z,78.10
2023-03-19T00:45:48.118Z,77.50
2023-03-19T00:48:55.301Z,78.00
2023-03-19T00:51:58.147Z,78.80
2023-03-19T00:55:01.167Z,78.60
2023-03-19T00:58:06.594Z,78.90
2023-03-19T01:01:11.018Z,79.10
2023-03-19T01:04:14.938Z,78.80
2023-03-19T01:07:18.044Z,78.70
2023-03-19T01:10:22.709Z,78.70
2023-03-19T01:13:26.958Z,79.50
2023-03-19T01:16:29.860Z,79.90
2023-03-19T01:19:32.686Z,80.10
2023-03-19T01:22:36.925Z,79.50
2023-03-19T01:25:40.730Z,79.60
2023-03-19T01:28:44.944Z,79.90
2023-03-19T01:31:47.756Z,80.10
2023-03-19T01:34:50.674Z,80.30
2023-03-19T01:37:53.481Z,81.20
2023-03-19T01:40:56.353Z,80.90
2023-03-19T01:44:00.583Z,80.70
2023-03-19T01:47:07.288Z,81.00
2023-03-19T01:50:23.174Z,81.00
2023-03-19T01:53:28.908Z,80.20
2023-03-19T01:56:34.382Z,81.40
2023-03-19T01:59:42.274Z,81.70
2023-03-19T02:02:48.551Z,81.80
2023-03-19T02:05:52.659Z,82.10
2023-03-19T02:08:58.251Z,82.50
2023-03-19T02:12:02.668Z,82.80
2023-03-19T02:15:08.189Z,83.10
2023-03-19T02:18:11.446Z,82.80
2023-03-19T02:21:17.532Z,83.20
2023-03-19T02:24:26.713Z,83.00
2023-03-19T02:27:31.285Z,83.20
2023-03-19T02:30:35.391Z,83.00
2023-03-19T02:33:38.451Z,83.00
2023-03-19T02:36:47.508Z,83.10
2023-03-19T02:39:58.737Z,83.30
2023-03-19T02:43:02.920Z,83.60
2023-03-19T02:46:08.933Z,83.40
2023-03-19T02:49:12.024Z,83.40
2023-03-19T02:52:14.916Z,83.40
2023-03-19T02:55:18.412Z,83.50
2023-03-19T02:58:22.642Z,83.70
2023-03-19T03:01:25.865Z,83.80
2023-03-19T03:04:29.160Z,83.90
2023-03-19T03:07:32.599Z,84.10
2023-03-19T03:10:35.674Z,84.10
2023-03-19T03:13:39.929Z,84.30
2023-03-19T03:16:42.842Z,84.50
2023-03-19T03:19:45.726Z,84.30
2023-03-19T03:22:48.637Z,84.50
2023-03-19T03:25:52.092Z,84.50
2023-03-19T03:28:56.253Z,85.00
2023-03-19T03:31:59.065Z,85.40
2023-03-19T03:35:01.931Z,85.00
2023-03-19T03:38:04.790Z,85.40
2023-03-19T03:41:07.924Z,85.50
2023-03-19T03:44:12.101Z,85.70
2023-03-19T03:47:15.347Z,85.70
2023-03-19T03:50:18.488Z,85.90
2023-03-19T03:53:21.555Z,86.00
2023-03-19T03:56:24.427Z,85.90
2023-03-19T03:59:28.592Z,85.90
2023-03-19T04:02:31.647Z,86.20
2023-03-19T04:05:34.505Z,86.30
2023-03-19T04:08:37.310Z,86.80
2023-03-19T04:11:41.863Z,86.80
2023-03-19T04:14:46.592Z,87.10
2023-03-19T04:17:49.500Z,87.10
2023-03-19T04:20:53.385Z,87.60
2023-03-19T04:23:56.170Z,88.10
2023-03-19T04:26:59.001Z,88.70
2023-03-19T04:30:03.240Z,89.00
2023-03-19T04:33:06.884Z,88.90
2023-03-19T04:36:09.979Z,89.00
2023-03-19T04:39:12.790Z,89.30
2023-03-19T04:42:16.122Z,89.60
2023-03-19T04:45:20.581Z,90.00
2023-03-19T04:48:23.447Z,89.80
2023-03-19T04:51:26.324Z,89.70
2023-03-19T04:54:29.696Z,90.00
2023-03-19T04:57:32.506Z,90.10
2023-03-19T05:00:36.727Z,90.50
2023-03-19T05:03:39.597Z,90.30
2023-03-19T05:06:42.870Z,90.30
2023-03-19T05:09:46.343Z,90.40
2023-03-19T05:12:49.132Z,90.30
2023-03-19T05:15:55.123Z,90.40
2023-03-19T05:18:58.074Z,90.30
2023-03-19T05:22:00.883Z,90.40
2023-03-19T05:25:03.932Z,90.30
2023-03-19T05:28:08.265Z,90.40
2023-03-19T05:31:12.426Z,90.50
2023-03-19T05:34:15.285Z,90.50
2023-03-19T05:37:18.272Z,90.60
2023-03-19T05:40:21.265Z,90.60
2023-03-19T05:43:24.097Z,90.60
2023-03-19T05:46:28.535Z,90.70
2023-03-19T05:49:31.339Z,91.10
2023-03-19T05:52:34.344Z,91.00
2023-03-19T05:55:37.179Z,91.50
2023-03-19T05:58:40.282Z,91.60
2023-03-19T06:01:44.474Z,92.20
2023-03-19T06:04:47.329Z,92.10
2023-03-19T06:07:50.241Z,92.20
2023-03-19T06:10:54.375Z,92.40
2023-03-19T06:13:57.227Z,92.60
2023-03-19T06:17:01.369Z,92.40
2023-03-19T06:20:05.164Z,92.70
2023-03-19T06:23:08.030Z,93.30
2023-03-19T06:26:10.916Z,93.40
2023-03-19T06:29:13.713Z,93.90
2023-03-19T06:32:17.826Z,93.50
2023-03-19T06:35:20.927Z,93.50
2023-03-19T06:38:23.741Z,93.60
2023-03-19T06:41:26.567Z,93.20
2023-03-19T06:44:30.013Z,93.70
2023-03-19T06:47:34.269Z,93.60
2023-03-19T06:50:37.057Z,93.80
2023-03-19T06:53:39.975Z,93.80
2023-03-19T06:56:42.805Z,93.80
2023-03-19T06:59:45.684Z,94.00
2023-03-19T07:02:49.836Z,93.80
2023-03-19T07:05:52.680Z,93.80
2023-03-19T07:08:56.142Z,93.80
2023-03-19T07:11:58.935Z,93.70
2023-03-19T07:15:01.876Z,93.90
2023-03-19T07:18:06.338Z,93.80
2023-03-19T07:21:09.142Z,93.80
2023-03-19T07:24:11.903Z,93.90
2023-03-19T07:27:14.998Z,93.90
2023-03-19T07:30:18.063Z,93.80
2023-03-19T07:33:22.484Z,93.60
2023-03-19T07:36:25.353Z,93.80
2023-03-19T07:39:28.115Z,94.40
2023-03-19T07:42:31.036Z,94.20
2023-03-19T07:45:34.030Z,94.50
2023-03-19T07:48:38.214Z,94.50
2023-03-19T07:51:41.157Z,94.80
2023-03-19T07:54:43.953Z,95.20
2023-03-19T07:57:46.764Z,95.10
2023-03-19T08:00:49.860Z,95.20
2023-03-19T08:03:54.024Z,95.60
2023-03-19T08:06:56.821Z,95.80
2023-03-19T08:09:59.755Z,96.10
2023-03-19T08:13:03.881Z,96.00
2023-03-19T08:16:07.208Z,95.50
2023-03-19T08:19:11.341Z,95.50
2023-03-19T08:22:14.368Z,95.60
2023-03-19T08:25:17.280Z,95.60
2023-03-19T08:28:20.360Z,95.60
2023-03-19T08:31:23.411Z,95.80
2023-03-19T08:34:27.988Z,96.00
2023-03-19T08:37:31.156Z,96.10
2023-03-19T08:40:34.239Z,96.20
2023-03-19T08:43:38.213Z,96.70
2023-03-19T08:46:42.503Z,96.60
2023-03-19T08:49:47.062Z,96.40
2023-03-19T08:52:50.063Z,96.60
2023-03-19T08:55:54.098Z,96.80
2023-03-19T08:58:57.617Z,96.50
2023-03-19T09:02:00.557Z,96.50
2023-03-19T09:05:05.170Z,96.40
2023-03-19T09:08:08.254Z,96.10
2023-03-19T09:11:11.403Z,96.10
2023-03-19T09:14:16.523Z,96.10
2023-03-19T09:17:19.341Z,95.50
2023-03-19T09:20:23.622Z,95.70
2023-03-19T09:23:26.498Z,95.90
2023-03-19T09:26:29.383Z,95.80
2023-03-19T09:29:32.279Z,95.80
2023-03-19T09:32:35.208Z,95.70
2023-03-19T09:35:39.808Z,96.50
2023-03-19T09:38:42.664Z,96.40
2023-03-19T09:41:59.830Z,96.40
2023-03-19T09:45:03.105Z,96.20
2023-03-19T09:48:08.969Z,96.50
2023-03-19T09:51:20.743Z,96.10
2023-03-19T09:54:30.985Z,96.10
2023-03-19T09:57:35.418Z,96.50
2023-03-19T10:00:40.618Z,96.30
2023-03-19T10:03:56.760Z,96.30
2023-03-19T10:07:09.914Z,96.60
2023-03-19T10:10:38.353Z,97.10
2023-03-19T10:13:56.195Z,97.00
2023-03-19T10:17:02.100Z,97.40
2023-03-19T10:20:11.072Z,97.40
2023-03-19T10:23:43.832Z,97.80
2023-03-19T10:26:47.321Z,97.60
2023-03-19T10:29:50.169Z,97.90
2023-03-19T10:33:01.395Z,98.60
2023-03-19T10:36:09.596Z,97.40
2023-03-19T10:39:17.855Z,98.20
2023-03-19T10:42:35.249Z,97.80
2023-03-19T10:45:39.441Z,97.50
2023-03-19T10:48:46.566Z,97.30
2023-03-19T10:51:49.804Z,97.30
2023-03-19T10:55:01.991Z,98.00
2023-03-19T10:58:07.057Z,97.70
2023-03-19T11:01:12.763Z,98.60
2023-03-19T11:04:18.610Z,97.50
2023-03-19T11:07:22.377Z,97.10
2023-03-19T11:10:30.048Z,97.30
2023-03-19T11:13:36.170Z,96.80
2023-03-19T11:16:50.312Z,97.90
2023-03-19T11:19:55.615Z,96.30
2023-03-19T11:23:02.603Z,97.30
2023-03-19T11:26:07.312Z,96.10
2023-03-19T11:29:11.407Z,96.60
2023-03-19T11:32:42.021Z,97.90
2023-03-19T11:35:52.490Z,96.80
2023-03-19T11:39:07.615Z,96.60
2023-03-19T11:42:35.411Z,95.60
2023-03-19T11:45:45.591Z,95.80
2023-03-19T11:49:16.413Z,95.50
2023-03-19T11:52:27.126Z,95.80
2023-03-19T11:55:36.271Z,96.70
2023-03-19T11:58:59.029Z,94.90
2023-03-19T12:02:25.801Z,95.20
2023-03-19T12:05:34.045Z,95.30
2023-03-19T12:08:43.851Z,94.20
2023-03-19T12:11:53.416Z,94.40
2023-03-19T12:15:10.229Z,94.40
2023-03-19T12:18:24.041Z,94.80
2023-03-19T12:21:36.065Z,94.90
2023-03-19T12:24:55.577Z,96.70
2023-03-19T12:28:05.155Z,94.60
2023-03-19T12:31:28.677Z,94.50
2023-03-19T12:34:36.118Z,93.40
2023-03-19T12:37:45.547Z,93.30
2023-03-19T12:40:53.715Z,92.60
2023-03-19T12:44:02.214Z,92.20
2023-03-19T12:47:10.689Z,93.60
2023-03-19T12:50:18.280Z,93.10
2023-03-19T12:53:32.300Z,92.00
2023-03-19T12:56:40.629Z,91.10
2023-03-19T12:59:49.120Z,91.40
2023-03-19T13:02:58.159Z,91.00
2023-03-19T13:06:05.925Z,91.90
2023-03-19T13:09:17.376Z,91.30
2023-03-19T13:12:23.632Z,91.40
2023-03-19T13:15:32.297Z,90.20
2023-03-19T13:18:42.257Z,90.60
2023-03-19T13:21:47.269Z,91.90
2023-03-19T13:24:52.160Z,90.50
2023-03-19T13:27:56.195Z,92.60
2023-03-19T13:31:05.993Z,93.10
2023-03-19T13:34:22.515Z,92.50
2023-03-19T13:37:25.362Z,92.80
2023-03-19T13:40:43.797Z,91.50
2023-03-19T13:43:54.521Z,93.00
2023-03-19T13:46:57.670Z,92.20
2023-03-19T13:50:24.473Z,92.50
2023-03-19T13:53:39.823Z,92.70
2023-03-19T13:57:06.661Z,92.40
2023-03-19T14:00:57.022Z,92.60
2023-03-19T14:04:01.798Z,87.80
2023-03-19T14:07:19.147Z,89.10
2023-03-19T14:10:27.816Z,88.10
2023-03-19T14:13:34.904Z,88.30
2023-03-19T14:16:42.167Z,85.30
2023-03-19T14:19:45.312Z,86.50
2023-03-19T14:23:04.206Z,86.20
2023-03-19T14:26:11.931Z,83.60
2023-03-19T14:29:16.474Z,83.30
2023-03-19T14:32:24.010Z,81.20
2023-03-19T14:35:27.779Z,78.80
2023-03-19T14:38:38.022Z,78.50
2023-03-19T14:41:44.712Z,80.60
2023-03-19T14:45:22.610Z,76.50
2023-03-19T14:48:47.304Z,78.40
2023-03-19T14:51:58.294Z,76.00
2023-03-19T14:55:04.782Z,74.80
2023-03-19T14:58:10.790Z,74.30
2023-03-19T15:01:13.881Z,72.60
2023-03-19T15:04:18.089Z,72.10
2023-03-19T15:07:26.404Z,69.80
2023-03-19T15:10:33.632Z,69.00
2023-03-19T15:13:47.626Z,72.00
2023-03-19T15:16:59.514Z,71.10
2023-03-19T15:20:03.870Z,69.50
2023-03-19T15:23:23.405Z,69.20
2023-03-19T15:26:35.472Z,71.00
2023-03-19T15:29:38.528Z,71.00
2023-03-19T15:32:54.239Z,72.60
2023-03-19T15:36:01.661Z,72.90
2023-03-19T15:39:08.186Z,69.20
2023-03-19T15:42:13.573Z,67.80
2023-03-19T15:45:20.600Z,67.70
2023-03-19T15:48:27.618Z,66.40
2023-03-19T15:51:31.362Z,66.80
2023-03-19T15:54:34.854Z,66.80
2023-03-19T15:57:40.540Z,66.50
2023-03-19T16:00:44.250Z,69.40
2023-03-19T16:03:52.989Z,71.70
2023-03-19T16:06:57.511Z,68.60
2023-03-19T16:10:00.560Z,67.80
2023-03-19T16:13:18.227Z,67.50
2023-03-19T16:16:23.228Z,67.90
2023-03-19T16:19:35.983Z,68.60
2023-03-19T16:22:38.871Z,69.70
2023-03-19T16:25:45.968Z,71.80
2023-03-19T16:28:58.128Z,73.40
2023-03-19T16:32:02.535Z,74.60
2023-03-19T16:35:07.339Z,74.10
2023-03-19T16:38:14.895Z,76.20
2023-03-19T16:41:23.938Z,75.90
2023-03-19T16:44:31.491Z,75.60
2023-03-19T16:47:34.511Z,75.30
2023-03-19T16:50:38.971Z,76.70
2023-03-19T16:53:42.229Z,76.70
2023-03-19T16:56:45.250Z,76.30
2023-03-19T16:59:49.637Z,77.10
2023-03-19T17:02:52.637Z,78.00
2023-03-19T17:05:55.473Z,78.60
2023-03-19T17:08:58.270Z,78.70
2023-03-19T17:12:01.685Z,79.10
2023-03-19T17:15:07.593Z,79.60
2023-03-19T17:18:16.950Z,79.50
2023-03-19T17:21:23.973Z,79.60
2023-03-19T17:24:28.898Z,79.40
2023-03-19T17:27:34.553Z,79.50
2023-03-19T17:30:39.648Z,80.30
2023-03-19T17:33:42.530Z,80.70
2023-03-19T17:36:47.092Z,80.80
2023-03-19T17:39:50.753Z,80.90
2023-03-19T17:42:54.203Z,81.40
2023-03-19T17:45:58.351Z,81.30
2023-03-19T17:49:01.166Z,81.70
2023-03-19T17:52:03.992Z,81.10
2023-03-19T17:55:16.037Z,81.70
2023-03-19T17:58:21.021Z,82.30
2023-03-19T18:01:28.132Z,82.10
2023-03-19T18:04:31.156Z,82.60
2023-03-19T18:07:33.965Z,82.80
2023-03-19T18:10:37.043Z,83.20
2023-03-19T18:13:40.100Z,88.40
2023-03-19T18:16:45.374Z,86.20
2023-03-19T18:19:50.747Z,85.60
2023-03-19T18:22:53.745Z,85.30
2023-03-19T18:25:56.681Z,85.30
2023-03-19T18:28:59.470Z,85.30
2023-03-19T18:32:07.261Z,85.20
2023-03-19T18:35:15.222Z,85.20
2023-03-19T18:38:20.233Z,85.40
2023-03-19T18:41:25.278Z,85.10
2023-03-19T18:44:28.145Z,85.10
2023-03-19T18:47:32.468Z,85.70
2023-03-19T18:50:35.455Z,85.80
2023-03-19T18:53:38.571Z,85.80
2023-03-19T18:56:41.438Z,86.10
2023-03-19T18:59:44.420Z,86.10
2023-03-19T19:02:49.236Z,86.40
2023-03-19T19:05:53.729Z,86.50
2023-03-19T19:08:56.530Z,86.60
2023-03-19T19:12:01.943Z,87.20
2023-03-19T19:15:06.003Z,87.10
2023-03-19T19:18:18.110Z,87.70
2023-03-19T19:21:21.020Z,87.60
2023-03-19T19:24:23.854Z,87.50
2023-03-19T19:27:27.167Z,88.40
2023-03-19T19:30:30.661Z,89.30
2023-03-19T19:33:36.611Z,89.10
2023-03-19T19:36:39.418Z,88.10
2023-03-19T19:39:42.205Z,88.70
2023-03-19T19:42:46.170Z,88.50
2023-03-19T19:45:51.551Z,88.60
2023-03-19T19:48:55.824Z,88.30
2023-03-19T19:51:58.621Z,88.00
2023-03-19T19:55:01.531Z,87.90
2023-03-19T19:58:06.292Z,87.50
2023-03-19T20:01:16.044Z,87.60
2023-03-19T20:04:21.722Z,88.20
2023-03-19T20:07:24.617Z,88.20
2023-03-19T20:10:29.886Z,89.10
2023-03-19T20:13:35.632Z,89.30
2023-03-19T20:16:38.488Z,89.70
2023-03-19T20:19:42.910Z,90.40
2023-03-19T20:22:46.233Z,90.80
2023-03-19T20:25:49.076Z,91.50
2023-03-19T20:28:52.699Z,91.80
2023-03-19T20:31:58.236Z,92.50
2023-03-19T20:35:02.978Z,92.80
2023-03-19T20:38:07.175Z,93.20
2023-03-19T20:41:19.460Z,93.80
2023-03-19T20:44:26.208Z,94.40
2023-03-19T20:47:32.875Z,94.60
2023-03-19T20:50:37.097Z,95.00
2023-03-19T20:53:40.063Z,95.70
2023-03-19T20:56:45.770Z,95.90
2023-03-19T20:59:50.029Z,96.70
2023-03-19T21:02:54.485Z,97.90
2023-03-19T21:06:01.930Z,98.70
2023-03-19T21:09:05.838Z,98.40
2023-03-19T21:12:24.018Z,98.40
2023-03-19T21:15:27.385Z,98.30
2023-03-19T21:18:30.254Z,98.00
2023-03-19T21:21:37.204Z,97.90
2023-03-19T21:24:40.031Z,97.60
2023-03-19T21:27:47.656Z,97.50
2023-03-19T21:30:50.587Z,98.00
2023-03-19T21:33:53.526Z,97.90
2023-03-19T21:36:57.728Z,98.10
2023-03-19T21:40:00.799Z,97.90
2023-03-19T21:43:04.851Z,97.50
2023-03-19T21:46:23.182Z,97.40
2023-03-19T21:49:27.232Z,97.40
2023-03-19T21:52:34.279Z,97.50
2023-03-19T21:55:43.171Z,98.00
2023-03-19T21:58:46.788Z,97.90
2023-03-19T22:01:49.750Z,97.70
2023-03-19T22:04:52.523Z,97.40
2023-03-19T22:07:57.179Z,97.70
2023-03-19T22:11:02.490Z,98.30
2023-03-19T22:14:08.080Z,98.30
2023-03-19T22:17:11.351Z,98.10
2023-03-19T22:20:17.410Z,98.30
2023-03-19T22:23:22.443Z,98.40
2023-03-19T22:26:30.634Z,98.40
2023-03-19T22:29:34.256Z,98.20
2023-03-19T22:32:37.118Z,98.80
2023-03-19T22:35:40.044Z,98.60
2023-03-19T22:38:45.024Z,98.70
2023-03-19T22:41:49.359Z,98.70
2023-03-19T22:44:52.224Z,98.60
2023-03-19T22:47:56.763Z,98.90
2023-03-19T22:51:00.048Z,98.90
2023-03-19T22:54:05.818Z,99.00
2023-03-19T22:57:12.386Z,99.20
2023-03-19T23:00:18.268Z,98.60
2023-03-19T23:03:24.595Z,98.70
2023-03-19T23:06:30.904Z,98.90
2023-03-19T23:09:37.535Z,98.70
2023-03-19T23:12:41.425Z,98.80
2023-03-19T23:15:45.158Z,98.80
2023-03-19T23:18:48.670Z,98.60
2023-03-19T23:21:52.283Z,98.80
2023-03-19T23:24:56.592Z,98.60
2023-03-19T23:28:02.216Z,98.70
2023-03-19T23:31:05.123Z,98.70
2023-03-19T23:34:08.615Z,98.60
2023-03-19T23:37:11.759Z,98.70
2023-03-19T23:40:16.929Z,98.80
2023-03-19T23:43:22.825Z,99.10
2023-03-19T23:46:25.825Z,99.20
2023-03-19T23:49:30.727Z,99.20
2023-03-19T23:52:33.550Z,99.30
2023-03-19T23:55:37.876Z,99.20
2023-03-19T23:58:43.174Z,99.40
